createdAt,value
2022-08-20T00:00:23.949Z,21.69
2022-08-20T00:02:56.953Z,21.57
2022-08-20T00:05:33.470Z,21.60
2022-08-20T00:08:04.281Z,21.64
2022-08-20T00:10:35.438Z,21.57
2022-08-20T00:13:05.590Z,21.59
2022-08-20T00:15:37.538Z,21.73
2022-08-20T00:18:07.434Z,21.67
2022-08-20T00:20:42.552Z,21.67
2022-08-20T00:23:13.487Z,21.79
2022-08-20T00:25:44.854Z,21.78
2022-08-20T00:28:14.845Z,21.71
2022-08-20T00:30:46.142Z,21.66
2022-08-20T00:33:17.725Z,21.58
2022-08-20T00:35:52.211Z,21.64
2022-08-20T00:40:56.198Z,21.57
2022-08-20T00:43:34.490Z,21.63
2022-08-20T00:46:08.633Z,21.50
2022-08-20T00:48:41.910Z,21.52
2022-08-20T00:51:27.420Z,21.58
2022-08-20T00:54:06.525Z,21.61
2022-08-20T00:56:36.494Z,21.67
2022-08-20T00:59:12.599Z,21.55
2022-08-20T01:01:55.541Z,21.41
2022-08-20T01:04:26.879Z,21.39
2022-08-20T01:06:58.294Z,21.63
2022-08-20T01:09:49.820Z,21.56
2022-08-20T01:12:18.920Z,21.44
2022-08-20T01:14:49.063Z,21.42
2022-08-20T01:17:23.751Z,21.37
2022-08-20T01:19:57.640Z,21.35
2022-08-20T01:22:54.781Z,21.42
2022-08-20T01:25:34.667Z,21.35
2022-08-20T01:28:05.776Z,21.33
2022-08-20T01:30:36.134Z,21.35
2022-08-20T01:33:05.437Z,21.37
2022-08-20T01:35:39.974Z,21.33
2022-08-20T01:38:10.181Z,21.37
2022-08-20T01:41:16.234Z,21.29
2022-08-20T01:43:48.502Z,21.30
2022-08-20T01:46:20.356Z,21.32
2022-08-20T01:48:50.043Z,21.40
2022-08-20T01:51:25.246Z,21.30
2022-08-20T01:53:59.697Z,21.29
2022-08-20T01:56:32.668Z,21.28
2022-08-20T01:59:07.917Z,21.20
2022-08-20T02:01:46.386Z,21.23
2022-08-20T02:04:18.129Z,21.14
2022-08-20T02:06:56.156Z,21.17
2022-08-20T02:09:28.680Z,21.23
2022-08-20T02:11:59.033Z,21.10
2022-08-20T02:14:33.750Z,21.12
2022-08-20T02:17:02.830Z,21.01
2022-08-20T02:19:38.631Z,21.05
2022-08-20T02:22:21.590Z,21.09
2022-08-20T02:24:51.406Z,20.90
2022-08-20T02:27:23.612Z,21.12
2022-08-20T02:29:55.154Z,21.08
2022-08-20T02:32:33.784Z,20.85
2022-08-20T02:35:04.444Z,21.07
2022-08-20T02:37:33.469Z,20.94
2022-08-20T02:40:03.333Z,20.74
2022-08-20T02:42:32.444Z,20.77
2022-08-20T02:45:04.423Z,20.77
2022-08-20T02:47:33.505Z,20.89
2022-08-20T02:50:02.549Z,20.84
2022-08-20T02:52:37.063Z,20.77
2022-08-20T02:55:07.256Z,20.79
2022-08-20T02:57:36.629Z,20.62
2022-08-20T03:00:13.195Z,20.81
2022-08-20T03:02:42.834Z,20.78
2022-08-20T03:05:18.285Z,20.96
2022-08-20T03:07:49.352Z,20.97
2022-08-20T03:10:19.062Z,20.99
2022-08-20T03:12:52.740Z,20.87
2022-08-20T03:15:24.062Z,20.88
2022-08-20T03:17:53.034Z,20.85
2022-08-20T03:20:23.900Z,20.90
2022-08-20T03:22:53.720Z,20.78
2022-08-20T03:25:23.024Z,20.75
2022-08-20T03:27:54.253Z,20.81
2022-08-20T03:30:27.832Z,20.53
2022-08-20T03:32:57.875Z,20.83
2022-08-20T03:35:30.244Z,20.80
2022-08-20T03:37:59.176Z,20.82
2022-08-20T03:40:32.131Z,20.82
2022-08-20T03:43:01.490Z,20.87
2022-08-20T03:45:32.596Z,20.87
2022-08-20T03:48:01.986Z,20.95
2022-08-20T03:50:33.689Z,20.66
2022-08-20T03:53:03.164Z,20.63
2022-08-20T03:55:33.282Z,20.76
2022-08-20T03:58:06.419Z,20.65
2022-08-20T04:00:43.133Z,20.63
2022-08-20T04:03:12.878Z,20.71
2022-08-20T04:05:43.230Z,20.74
2022-08-20T04:08:15.989Z,20.48
2022-08-20T04:10:46.638Z,20.70
2022-08-20T04:13:17.293Z,20.79
2022-08-20T04:15:50.286Z,20.82
2022-08-20T04:18:24.230Z,20.86
2022-08-20T04:20:54.606Z,20.64
2022-08-20T04:23:24.464Z,20.50
2022-08-20T04:25:56.658Z,20.48
2022-08-20T04:28:28.557Z,20.66
2022-08-20T04:31:01.484Z,20.69
2022-08-20T04:33:33.333Z,20.53
2022-08-20T04:36:05.311Z,20.27
2022-08-20T04:38:49.856Z,20.37
2022-08-20T04:41:23.742Z,20.58
2022-08-20T04:43:55.416Z,20.72
2022-08-20T04:46:29.015Z,20.79
2022-08-20T04:48:58.741Z,20.50
2022-08-20T04:51:27.906Z,20.47
2022-08-20T04:53:58.789Z,20.47
2022-08-20T04:56:31.598Z,20.66
2022-08-20T04:59:03.248Z,20.59
2022-08-20T05:01:33.944Z,20.51
2022-08-20T05:04:03.487Z,20.71
2022-08-20T05:06:35.163Z,20.50
2022-08-20T05:09:05.257Z,20.62
2022-08-20T05:11:36.930Z,20.73
2022-08-20T05:14:09.484Z,20.81
2022-08-20T05:16:41.534Z,20.74
2022-08-20T05:19:13.075Z,20.64
2022-08-20T05:21:42.259Z,20.85
2022-08-20T05:24:11.806Z,20.83
2022-08-20T05:26:41.080Z,20.86
2022-08-20T05:29:10.153Z,20.76
2022-08-20T05:31:42.090Z,20.73
2022-08-20T05:34:14.354Z,20.72
2022-08-20T05:36:49.207Z,20.81
2022-08-20T05:39:20.385Z,20.75
2022-08-20T05:41:51.407Z,20.89
2022-08-20T05:44:20.848Z,20.82
2022-08-20T05:46:51.188Z,20.88
2022-08-20T05:49:23.204Z,20.91
2022-08-20T05:51:52.302Z,20.95
2022-08-20T05:54:21.998Z,20.85
2022-08-20T05:56:51.705Z,20.88
2022-08-20T05:59:24.192Z,20.93
2022-08-20T06:01:55.278Z,20.88
2022-08-20T06:04:27.897Z,20.91
2022-08-20T06:07:03.820Z,20.82
2022-08-20T06:09:34.017Z,20.95
2022-08-20T06:12:06.284Z,21.04
2022-08-20T06:14:36.537Z,20.97
2022-08-20T06:17:13.331Z,21.09
2022-08-20T06:19:44.196Z,21.04
2022-08-20T06:22:18.573Z,20.95
2022-08-20T06:24:53.550Z,20.97
2022-08-20T06:27:23.805Z,21.01
2022-08-20T06:29:53.921Z,21.03
2022-08-20T06:32:32.358Z,21.16
2022-08-20T06:35:03.832Z,21.19
2022-08-20T06:37:37.000Z,21.13
2022-08-20T06:40:10.730Z,21.15
2022-08-20T06:42:47.858Z,21.20
2022-08-20T06:45:24.502Z,21.24
2022-08-20T06:47:58.092Z,21.28
2022-08-20T06:50:30.623Z,21.30
2022-08-20T06:53:01.169Z,21.61
2022-08-20T06:55:30.928Z,21.48
2022-08-20T06:58:02.128Z,21.79
2022-08-20T07:00:36.147Z,21.69
2022-08-20T07:03:07.710Z,21.48
2022-08-20T07:05:42.259Z,21.49
2022-08-20T07:08:13.809Z,21.47
2022-08-20T07:10:43.899Z,21.53
2022-08-20T07:13:15.405Z,21.34
2022-08-20T07:15:46.007Z,21.60
2022-08-20T07:18:17.058Z,21.54
2022-08-20T07:20:58.777Z,21.48
2022-08-20T07:23:28.440Z,21.68
2022-08-20T07:25:58.579Z,21.92
2022-08-20T07:28:31.082Z,21.78
2022-08-20T07:31:20.404Z,21.79
2022-08-20T07:33:51.206Z,21.80
2022-08-20T07:36:22.530Z,21.85
2022-08-20T07:38:52.729Z,21.97
2022-08-20T07:41:22.999Z,22.17
2022-08-20T07:43:52.514Z,22.13
2022-08-20T07:46:22.610Z,22.32
2022-08-20T07:48:53.181Z,22.20
2022-08-20T07:51:24.062Z,22.33
2022-08-20T07:53:54.265Z,22.45
2022-08-20T07:56:26.640Z,22.32
2022-08-20T07:59:02.343Z,22.53
2022-08-20T08:01:32.979Z,22.58
2022-08-20T08:04:03.848Z,22.67
2022-08-20T08:06:33.629Z,22.96
2022-08-20T08:09:09.259Z,22.79
2022-08-20T08:11:47.305Z,22.87
2022-08-20T08:14:23.816Z,23.11
2022-08-20T08:16:57.644Z,23.09
2022-08-20T08:19:38.025Z,23.15
2022-08-20T08:22:12.328Z,23.07
2022-08-20T08:24:56.836Z,23.16
2022-08-20T08:27:26.965Z,23.19
2022-08-20T08:29:55.954Z,23.34
2022-08-20T08:32:26.474Z,23.53
2022-08-20T08:34:56.962Z,23.56
2022-08-20T08:37:30.089Z,23.57
2022-08-20T08:39:59.905Z,23.68
2022-08-20T08:42:43.313Z,23.73
2022-08-20T08:45:16.087Z,23.83
2022-08-20T08:47:47.141Z,23.90
2022-08-20T08:50:43.861Z,23.91
2022-08-20T08:53:20.585Z,24.07
2022-08-20T08:55:49.741Z,24.17
2022-08-20T08:58:18.634Z,24.24
2022-08-20T09:00:52.737Z,24.39
2022-08-20T09:03:30.831Z,24.40
2022-08-20T09:06:03.165Z,24.52
2022-08-20T09:08:38.790Z,24.70
2022-08-20T09:11:10.631Z,24.72
2022-08-20T09:13:40.782Z,24.79
2022-08-20T09:16:09.911Z,24.84
2022-08-20T09:18:38.893Z,25.10
2022-08-20T09:21:18.403Z,25.19
2022-08-20T09:23:47.530Z,25.29
2022-08-20T09:26:16.487Z,25.29
2022-08-20T09:28:52.051Z,25.31
2022-08-20T09:31:24.423Z,25.34
2022-08-20T09:33:54.273Z,25.28
2022-08-20T09:36:31.754Z,25.26
2022-08-20T09:39:02.778Z,25.36
2022-08-20T09:41:34.490Z,25.37
2022-08-20T09:44:03.809Z,25.29
2022-08-20T09:46:33.067Z,25.24
2022-08-20T09:49:01.704Z,25.03
2022-08-20T09:51:33.032Z,25.25
2022-08-20T09:54:02.411Z,25.23
2022-08-20T09:56:35.871Z,25.08
2022-08-20T09:59:04.832Z,25.09
2022-08-20T10:01:34.974Z,25.27
2022-08-20T10:04:04.466Z,25.48
2022-08-20T10:06:41.839Z,25.26
2022-08-20T10:09:10.777Z,25.48
2022-08-20T10:11:39.620Z,25.44
2022-08-20T10:14:09.079Z,25.18
2022-08-20T10:16:38.811Z,25.33
2022-08-20T10:19:07.913Z,25.19
2022-08-20T10:21:39.143Z,25.29
2022-08-20T10:24:08.908Z,25.19
2022-08-20T10:26:39.668Z,25.01
2022-08-20T10:29:08.902Z,25.01
2022-08-20T10:31:37.894Z,24.83
2022-08-20T10:34:07.142Z,24.68
2022-08-20T10:36:37.927Z,24.46
2022-08-20T10:39:07.203Z,24.64
2022-08-20T10:41:38.958Z,24.46
2022-08-20T10:44:08.695Z,24.37
2022-08-20T10:46:37.678Z,24.71
2022-08-20T10:49:06.514Z,24.60
2022-08-20T10:51:35.553Z,24.53
2022-08-20T10:54:06.322Z,24.63
2022-08-20T10:56:41.489Z,24.60
2022-08-20T10:59:10.546Z,24.52
2022-08-20T11:01:39.566Z,24.81
2022-08-20T11:04:11.711Z,24.69
2022-08-20T11:06:41.466Z,24.42
2022-08-20T11:09:12.531Z,24.54
2022-08-20T11:11:41.478Z,24.40
2022-08-20T11:14:10.450Z,24.33
2022-08-20T11:16:39.292Z,24.28
2022-08-20T11:19:08.952Z,24.13
2022-08-20T11:21:38.157Z,24.18
2022-08-20T11:24:09.668Z,24.17
2022-08-20T11:26:40.459Z,24.14
2022-08-20T11:29:09.535Z,24.26
2022-08-20T11:31:38.689Z,24.35
2022-08-20T11:34:12.170Z,24.26
2022-08-20T11:36:43.584Z,24.07
2022-08-20T11:39:12.672Z,23.89
2022-08-20T11:41:45.731Z,23.83
2022-08-20T11:44:21.831Z,23.75
2022-08-20T11:46:52.136Z,23.74
2022-08-20T11:49:20.975Z,23.85
2022-08-20T11:51:50.345Z,23.58
2022-08-20T11:54:19.376Z,23.20
2022-08-20T11:56:49.664Z,23.33
2022-08-20T11:59:19.080Z,23.62
2022-08-20T12:02:02.238Z,23.45
2022-08-20T12:04:35.001Z,23.08
2022-08-20T12:07:11.585Z,23.04
2022-08-20T12:09:43.136Z,22.95
2022-08-20T12:12:23.966Z,22.95
2022-08-20T12:14:53.957Z,22.84
2022-08-20T12:17:28.435Z,22.51
2022-08-20T12:19:59.681Z,22.59
2022-08-20T12:22:28.540Z,22.48
2022-08-20T12:24:58.009Z,22.48
2022-08-20T12:27:30.984Z,22.37
2022-08-20T12:30:03.032Z,22.43
2022-08-20T12:32:33.523Z,22.26
2022-08-20T12:35:03.298Z,22.43
2022-08-20T12:37:33.562Z,22.54
2022-08-20T12:40:07.776Z,22.44
2022-08-20T12:42:38.530Z,22.44
2022-08-20T12:45:09.332Z,22.50
2022-08-20T12:47:41.510Z,22.37
2022-08-20T12:50:18.260Z,22.46
2022-08-20T12:52:48.175Z,22.43
2022-08-20T12:55:20.700Z,22.46
2022-08-20T12:57:53.839Z,22.58
2022-08-20T13:00:26.813Z,22.42
2022-08-20T13:02:58.335Z,22.46
2022-08-20T13:05:29.367Z,22.39
2022-08-20T13:07:58.927Z,22.58
2022-08-20T13:10:31.140Z,22.59
2022-08-20T13:13:03.019Z,22.59
2022-08-20T13:15:33.395Z,22.63
2022-08-20T13:18:04.637Z,22.68
2022-08-20T13:20:34.813Z,22.59
2022-08-20T13:23:05.025Z,22.59
2022-08-20T13:25:34.909Z,22.70
2022-08-20T13:28:06.636Z,22.85
2022-08-20T13:30:38.629Z,22.85
2022-08-20T13:33:07.604Z,22.87
2022-08-20T13:35:36.687Z,22.72
2022-08-20T13:38:05.752Z,22.74
2022-08-20T13:40:34.836Z,22.85
2022-08-20T13:43:07.353Z,22.91
2022-08-20T13:45:37.617Z,22.83
2022-08-20T13:48:14.529Z,22.46
2022-08-20T13:50:47.392Z,22.50
2022-08-20T13:53:18.206Z,22.64
2022-08-20T13:55:47.682Z,23.04
2022-08-20T13:58:18.880Z,23.01
2022-08-20T14:00:48.209Z,23.23
2022-08-20T14:03:20.059Z,23.11
2022-08-20T14:05:54.487Z,23.16
2022-08-20T14:08:25.497Z,23.28
2022-08-20T14:10:56.736Z,23.27
2022-08-20T14:13:29.293Z,23.44
2022-08-20T14:15:58.567Z,23.50
2022-08-20T14:18:27.700Z,23.64
2022-08-20T14:20:56.502Z,23.95
2022-08-20T14:23:25.520Z,24.12
2022-08-20T14:25:54.371Z,24.11
2022-08-20T14:28:26.711Z,24.22
2022-08-20T14:30:55.878Z,24.11
2022-08-20T14:33:26.064Z,24.17
2022-08-20T14:35:55.804Z,24.41
2022-08-20T14:38:24.772Z,24.60
2022-08-20T14:40:53.732Z,24.73
2022-08-20T14:43:22.886Z,24.74
2022-08-20T14:45:53.991Z,24.77
2022-08-20T14:48:25.544Z,25.17
2022-08-20T14:50:55.902Z,25.03
2022-08-20T14:53:25.414Z,25.05
2022-08-20T14:55:54.360Z,24.90
2022-08-20T14:58:23.230Z,24.88
2022-08-20T15:00:55.525Z,24.92
2022-08-20T15:03:30.435Z,24.74
2022-08-20T15:06:00.532Z,24.65
2022-08-20T15:08:29.769Z,24.84
2022-08-20T15:10:58.770Z,25.18
2022-08-20T15:13:28.606Z,25.15
2022-08-20T15:15:59.725Z,25.05
2022-08-20T15:18:29.336Z,25.02
2022-08-20T15:20:58.883Z,24.76
2022-08-20T15:23:28.271Z,24.64
2022-08-20T15:25:57.006Z,24.77
2022-08-20T15:28:26.231Z,24.79
2022-08-20T15:30:56.190Z,24.83
2022-08-20T15:33:26.605Z,24.76
2022-08-20T15:35:56.200Z,24.84
2022-08-20T15:38:25.893Z,24.65
2022-08-20T15:40:56.411Z,24.31
2022-08-20T15:43:25.410Z,24.27
2022-08-20T15:45:54.962Z,24.37
2022-08-20T15:48:35.740Z,24.34
2022-08-20T15:51:25.869Z,24.52
2022-08-20T15:54:01.968Z,24.29
2022-08-20T15:56:53.569Z,24.35
2022-08-20T16:00:00.159Z,24.39
2022-08-20T16:03:18.699Z,24.45
2022-08-20T16:05:57.831Z,24.38
2022-08-20T16:08:48.370Z,24.14
2022-08-20T16:11:28.782Z,24.36
2022-08-20T16:14:04.747Z,24.08
2022-08-20T16:16:45.608Z,24.01
2022-08-20T16:19:22.928Z,23.94
2022-08-20T16:21:55.674Z,23.97
2022-08-20T16:24:25.587Z,24.07
2022-08-20T16:27:09.694Z,23.97
2022-08-20T16:29:59.879Z,23.93
2022-08-20T16:32:39.161Z,23.82
2022-08-20T16:35:29.691Z,23.76
2022-08-20T16:38:21.202Z,23.66
2022-08-20T16:40:57.447Z,23.61
2022-08-20T16:43:36.693Z,23.83
2022-08-20T16:46:14.700Z,23.75
2022-08-20T16:48:52.650Z,23.78
2022-08-20T16:51:35.424Z,23.74
2022-08-20T16:54:07.252Z,23.98
2022-08-20T16:56:38.829Z,23.78
2022-08-20T16:59:12.556Z,23.76
2022-08-20T17:02:07.037Z,23.83
2022-08-20T17:04:50.444Z,23.68
2022-08-20T17:07:43.318Z,23.65
2022-08-20T17:10:23.686Z,23.61
2022-08-20T17:13:00.058Z,23.61
2022-08-20T17:15:33.498Z,23.66
2022-08-20T17:18:24.361Z,23.78
2022-08-20T17:20:54.247Z,23.82
2022-08-20T17:23:24.490Z,23.71
2022-08-20T17:26:01.640Z,23.68
2022-08-20T17:28:41.451Z,23.64
2022-08-20T17:31:10.590Z,23.85
2022-08-20T17:33:41.565Z,23.83
2022-08-20T17:36:20.230Z,23.73
2022-08-20T17:38:52.238Z,23.64
2022-08-20T17:41:27.227Z,23.75
2022-08-20T17:44:01.099Z,23.80
2022-08-20T17:46:35.179Z,23.77
2022-08-20T17:49:09.864Z,23.74
2022-08-20T17:51:46.478Z,23.77
2022-08-20T17:54:23.100Z,23.81
2022-08-20T17:57:00.992Z,23.62
2022-08-20T18:00:00.865Z,23.55
2022-08-20T18:02:26.318Z,23.57
2022-08-20T18:04:57.488Z,23.46
2022-08-20T18:07:32.059Z,23.74
2022-08-20T18:10:08.393Z,23.51
2022-08-20T18:12:51.854Z,23.57
2022-08-20T18:15:25.035Z,23.60
2022-08-20T18:18:20.006Z,23.60
2022-08-20T18:21:22.621Z,23.46
2022-08-20T18:23:59.203Z,23.52
2022-08-20T18:26:32.167Z,23.42
2022-08-20T18:29:11.066Z,23.30
2022-08-20T18:31:47.451Z,23.50
2022-08-20T18:34:23.720Z,23.32
2022-08-20T18:36:59.209Z,23.19
2022-08-20T18:39:34.123Z,23.23
2022-08-20T18:42:06.239Z,23.74
2022-08-20T18:44:46.056Z,23.52
2022-08-20T18:47:24.179Z,23.43
2022-08-20T18:50:20.174Z,23.16
2022-08-20T18:52:52.004Z,23.64
2022-08-20T18:55:33.399Z,23.26
2022-08-20T18:58:06.753Z,23.25
2022-08-20T19:00:46.360Z,23.37
2022-08-20T19:03:23.865Z,23.57
2022-08-20T19:06:11.175Z,23.08
2022-08-20T19:08:49.468Z,22.89
2022-08-20T19:11:54.765Z,22.85
2022-08-20T19:14:58.440Z,23.02
2022-08-20T19:17:47.987Z,22.83
2022-08-20T19:20:23.447Z,22.84
2022-08-20T19:22:55.852Z,22.87
2022-08-20T19:25:30.472Z,23.10
2022-08-20T19:28:08.704Z,23.00
2022-08-20T19:30:44.819Z,22.95
2022-08-20T19:33:15.519Z,22.91
2022-08-20T19:36:14.405Z,22.88
2022-08-20T19:38:48.688Z,22.76
2022-08-20T19:41:30.893Z,22.74
2022-08-20T19:44:01.650Z,22.73
2022-08-20T19:46:36.005Z,22.67
2022-08-20T19:49:19.702Z,22.85
2022-08-20T19:52:04.447Z,22.71
2022-08-20T19:54:34.753Z,22.86
2022-08-20T19:57:08.503Z,22.84
2022-08-20T19:59:37.937Z,22.73
2022-08-20T20:02:20.313Z,22.57
2022-08-20T20:04:55.829Z,22.56
2022-08-20T20:07:31.005Z,22.59
2022-08-20T20:10:00.575Z,22.68
2022-08-20T20:12:29.905Z,22.57
2022-08-20T20:14:59.287Z,22.58
2022-08-20T20:17:36.794Z,22.54
2022-08-20T20:20:23.537Z,22.79
2022-08-20T20:22:57.178Z,22.82
2022-08-20T20:25:42.075Z,22.66
2022-08-20T20:28:15.851Z,22.56
2022-08-20T20:30:45.520Z,22.65
2022-08-20T20:33:18.677Z,22.79
2022-08-20T20:35:49.538Z,22.73
2022-08-20T20:38:29.202Z,22.72
2022-08-20T20:41:01.607Z,22.60
2022-08-20T20:43:34.005Z,22.59
2022-08-20T20:46:10.739Z,22.45
2022-08-20T20:48:48.513Z,22.48
2022-08-20T20:51:27.149Z,22.48
2022-08-20T20:54:00.113Z,22.46
2022-08-20T20:56:35.189Z,22.62
2022-08-20T20:59:07.448Z,22.53
2022-08-20T21:01:50.014Z,22.44
2022-08-20T21:04:21.667Z,22.38
2022-08-20T21:06:54.210Z,22.34
2022-08-20T21:09:25.832Z,22.54
2022-08-20T21:11:54.930Z,22.43
2022-08-20T21:14:24.220Z,22.39
2022-08-20T21:16:54.084Z,22.71
2022-08-20T21:19:23.534Z,22.42
2022-08-20T21:21:54.144Z,22.58
2022-08-20T21:24:23.709Z,22.38
2022-08-20T21:26:54.021Z,22.32
2022-08-20T21:29:32.303Z,22.58
2022-08-20T21:32:01.667Z,22.35
2022-08-20T21:34:30.644Z,22.41
2022-08-20T21:37:01.217Z,22.42
2022-08-20T21:39:30.681Z,22.52
2022-08-20T21:42:03.536Z,22.39
2022-08-20T21:44:33.859Z,22.48
2022-08-20T21:47:03.430Z,22.60
2022-08-20T21:49:33.780Z,22.49
2022-08-20T21:52:05.852Z,22.35
2022-08-20T21:54:35.168Z,22.33
2022-08-20T21:57:07.798Z,22.53
2022-08-20T21:59:44.521Z,22.32
2022-08-20T22:02:13.883Z,22.56
2022-08-20T22:04:42.974Z,22.52
2022-08-20T22:07:15.831Z,22.29
2022-08-20T22:09:45.340Z,22.25
2022-08-20T22:12:20.357Z,22.27
2022-08-20T22:14:49.888Z,22.35
2022-08-20T22:17:19.008Z,22.30
2022-08-20T22:19:48.580Z,22.26
2022-08-20T22:22:21.887Z,22.14
2022-08-20T22:24:51.010Z,22.25
2022-08-20T22:27:20.280Z,22.26
2022-08-20T22:29:49.347Z,22.29
2022-08-20T22:32:19.779Z,22.30
2022-08-20T22:35:03.453Z,22.40
2022-08-20T22:37:34.945Z,22.42
2022-08-20T22:40:06.063Z,22.36
2022-08-20T22:42:35.207Z,22.36
2022-08-20T22:45:04.729Z,22.23
2022-08-20T22:47:43.169Z,22.23
2022-08-20T22:50:14.222Z,22.36
2022-08-20T22:52:45.496Z,22.22
2022-08-20T22:55:14.599Z,22.35
2022-08-20T22:57:43.802Z,22.35
2022-08-20T23:00:19.329Z,22.25
2022-08-20T23:02:53.673Z,22.52
2022-08-20T23:05:25.579Z,22.26
2022-08-20T23:07:58.670Z,22.13
2022-08-20T23:10:30.984Z,22.09
2022-08-20T23:13:00.023Z,22.10
2022-08-20T23:15:31.084Z,22.09
2022-08-20T23:18:13.245Z,22.01
2022-08-20T23:20:45.783Z,22.11
2022-08-20T23:23:16.264Z,22.06
2022-08-20T23:25:45.272Z,22.20
2022-08-20T23:28:14.160Z,22.08
2022-08-20T23:30:43.511Z,22.04
2022-08-20T23:33:12.826Z,22.08
2022-08-20T23:35:43.023Z,22.04
2022-08-20T23:38:12.565Z,21.98
2022-08-20T23:40:44.537Z,21.93
2022-08-20T23:43:13.928Z,21.87
2022-08-20T23:45:43.316Z,21.85
2022-08-20T23:48:12.479Z,21.87
2022-08-20T23:50:41.760Z,21.74
2022-08-20T23:53:10.706Z,21.72
2022-08-20T23:55:39.761Z,21.70
2022-08-20T23:58:10.487Z,21.63
